createdAt,value
2019-05-26T00:00:29.385Z,94.90
2019-05-26T00:02:56.268Z,94.80
2019-05-26T00:05:22.437Z,94.80
2019-05-26T00:07:48.645Z,94.80
2019-05-26T00:10:15.040Z,95.00
2019-05-26T00:12:42.593Z,95.00
2019-05-26T00:15:10.844Z,95.10
2019-05-26T00:17:37.044Z,95.10
2019-05-26T00:20:06.596Z,95.30
2019-05-26T00:22:32.756Z,95.40
2019-05-26T00:24:58.979Z,95.30
2019-05-26T00:27:25.254Z,95.30
2019-05-26T00:29:51.571Z,95.40
2019-05-26T00:32:17.886Z,95.60
2019-05-26T00:34:44.190Z,96.10
2019-05-26T00:37:11.169Z,95.70
2019-05-26T00:39:37.448Z,95.70
2019-05-26T00:42:03.680Z,95.70
2019-05-26T00:44:29.921Z,95.70
2019-05-26T00:46:56.184Z,95.80
2019-05-26T00:49:22.342Z,95.90
2019-05-26T00:51:48.552Z,96.20
2019-05-26T00:54:14.713Z,96.10
2019-05-26T00:56:40.893Z,96.00
2019-05-26T00:59:08.065Z,96.00
2019-05-26T01:01:34.300Z,95.90
2019-05-26T01:04:00.470Z,95.90
2019-05-26T01:06:26.941Z,95.90
2019-05-26T01:08:53.133Z,95.80
2019-05-26T01:11:19.300Z,95.70
2019-05-26T01:13:45.488Z,95.90
2019-05-26T01:16:11.768Z,95.60
2019-05-26T01:18:38.157Z,95.40
2019-05-26T01:21:04.310Z,95.20
2019-05-26T01:23:30.506Z,95.20
2019-05-26T01:25:56.685Z,95.20
2019-05-26T01:28:22.985Z,95.10
2019-05-26T01:30:49.209Z,95.00
2019-05-26T01:33:15.467Z,95.00
2019-05-26T01:35:42.276Z,95.00
2019-05-26T01:38:22.670Z,95.00
2019-05-26T01:40:40.792Z,94.80
2019-05-26T01:43:07.350Z,94.80
2019-05-26T01:45:33.624Z,94.60
2019-05-26T01:47:59.789Z,94.40
2019-05-26T01:50:25.997Z,94.50
2019-05-26T01:52:52.158Z,94.40
2019-05-26T01:55:18.337Z,94.20
2019-05-26T01:57:44.513Z,94.10
2019-05-26T02:00:10.987Z,94.20
2019-05-26T02:02:37.469Z,94.20
2019-05-26T02:05:04.034Z,94.10
2019-05-26T02:07:30.544Z,94.10
2019-05-26T02:09:56.844Z,94.20
2019-05-26T02:12:23.062Z,94.10
2019-05-26T02:14:49.225Z,94.20
2019-05-26T02:17:15.406Z,94.20
2019-05-26T02:19:41.568Z,94.10
2019-05-26T02:22:07.818Z,94.20
2019-05-26T02:24:33.983Z,94.30
2019-05-26T02:27:00.206Z,94.40
2019-05-26T02:29:26.368Z,94.30
2019-05-26T02:31:53.546Z,94.60
2019-05-26T02:34:19.717Z,94.40
2019-05-26T02:36:45.895Z,94.50
2019-05-26T02:39:12.074Z,94.40
2019-05-26T02:41:38.278Z,94.50
2019-05-26T02:44:04.849Z,94.50
2019-05-26T02:46:31.055Z,94.60
2019-05-26T02:48:57.231Z,94.50
2019-05-26T02:51:23.402Z,94.50
2019-05-26T02:53:49.669Z,94.70
2019-05-26T02:56:16.140Z,94.50
2019-05-26T02:58:42.322Z,94.60
2019-05-26T03:01:08.589Z,94.80
2019-05-26T03:03:35.176Z,94.60
2019-05-26T03:06:02.481Z,94.70
2019-05-26T03:08:29.359Z,94.70
2019-05-26T03:10:58.379Z,94.60
2019-05-26T03:13:46.451Z,94.50
2019-05-26T03:16:14.947Z,94.50
2019-05-26T03:18:41.422Z,94.60
2019-05-26T03:21:08.769Z,94.60
2019-05-26T03:23:34.948Z,94.60
2019-05-26T03:26:01.135Z,94.50
2019-05-26T03:28:27.293Z,94.60
2019-05-26T03:30:53.486Z,94.60
2019-05-26T03:33:19.649Z,94.70
2019-05-26T03:35:45.938Z,94.40
2019-05-26T03:38:12.199Z,94.50
2019-05-26T03:40:38.393Z,94.50
2019-05-26T03:43:05.019Z,94.40
2019-05-26T03:45:41.080Z,94.30
2019-05-26T03:48:07.254Z,94.50
2019-05-26T03:50:33.422Z,94.50
2019-05-26T03:52:59.605Z,94.40
2019-05-26T03:55:25.794Z,94.40
2019-05-26T03:57:51.968Z,94.10
2019-05-26T04:00:18.634Z,94.10
2019-05-26T04:02:44.810Z,94.00
2019-05-26T04:05:11.376Z,93.90
2019-05-26T04:07:37.572Z,93.80
2019-05-26T04:10:07.482Z,93.70
2019-05-26T04:12:33.693Z,93.90
2019-05-26T04:14:59.975Z,93.90
2019-05-26T04:17:26.183Z,93.80
2019-05-26T04:19:52.452Z,93.70
2019-05-26T04:22:18.721Z,93.60
2019-05-26T04:24:46.046Z,93.40
2019-05-26T04:27:12.221Z,93.30
2019-05-26T04:29:39.446Z,93.30
2019-05-26T04:32:05.630Z,93.00
2019-05-26T04:34:31.818Z,93.40
2019-05-26T04:36:58.060Z,93.50
2019-05-26T04:39:24.265Z,93.20
2019-05-26T04:41:50.446Z,93.20
2019-05-26T04:44:16.634Z,93.10
2019-05-26T04:46:42.820Z,93.00
2019-05-26T04:49:08.986Z,93.00
2019-05-26T04:51:35.167Z,92.80
2019-05-26T04:54:03.111Z,93.00
2019-05-26T04:56:29.461Z,92.90
2019-05-26T04:58:55.964Z,92.90
2019-05-26T05:01:22.374Z,92.70
2019-05-26T05:03:48.822Z,92.60
2019-05-26T05:06:15.281Z,92.50
2019-05-26T05:08:41.569Z,92.70
2019-05-26T05:11:07.748Z,92.40
2019-05-26T05:13:33.936Z,92.20
2019-05-26T05:16:00.206Z,92.40
2019-05-26T05:18:27.393Z,92.30
2019-05-26T05:20:53.564Z,92.20
2019-05-26T05:23:19.745Z,91.90
2019-05-26T05:25:45.956Z,91.90
2019-05-26T05:28:12.137Z,91.90
2019-05-26T05:30:38.316Z,91.70
2019-05-26T05:33:04.525Z,91.50
2019-05-26T05:35:30.675Z,91.40
2019-05-26T05:37:56.864Z,91.10
2019-05-26T05:40:23.030Z,91.30
2019-05-26T05:42:50.349Z,91.00
2019-05-26T05:45:16.925Z,90.60
2019-05-26T05:47:43.145Z,90.80
2019-05-26T05:50:09.726Z,90.60
2019-05-26T05:52:35.980Z,90.70
2019-05-26T05:55:03.276Z,90.80
2019-05-26T05:57:29.466Z,90.90
2019-05-26T05:59:55.641Z,90.80
2019-05-26T06:02:21.841Z,90.50
2019-05-26T06:04:48.037Z,90.10
2019-05-26T06:07:14.241Z,89.80
2019-05-26T06:09:40.438Z,89.90
2019-05-26T06:12:06.594Z,90.00
2019-05-26T06:14:32.921Z,89.20
2019-05-26T06:16:59.177Z,89.50
2019-05-26T06:19:25.326Z,88.70
2019-05-26T06:21:51.548Z,88.80
2019-05-26T06:24:17.833Z,88.40
2019-05-26T06:26:43.999Z,88.50
2019-05-26T06:29:10.191Z,87.80
2019-05-26T06:31:36.352Z,88.00
2019-05-26T06:34:02.880Z,87.50
2019-05-26T06:36:29.049Z,86.60
2019-05-26T06:38:55.242Z,86.40
2019-05-26T06:41:32.771Z,85.40
2019-05-26T06:43:49.514Z,83.90
2019-05-26T06:46:16.710Z,83.80
2019-05-26T06:48:42.881Z,82.00
2019-05-26T06:51:09.214Z,82.60
2019-05-26T06:53:37.435Z,82.40
2019-05-26T06:56:03.607Z,82.90
2019-05-26T06:58:29.778Z,82.50
2019-05-26T07:00:55.938Z,81.00
2019-05-26T07:03:22.173Z,80.80
2019-05-26T07:05:48.389Z,79.10
2019-05-26T07:08:14.552Z,77.80
2019-05-26T07:10:40.836Z,76.20
2019-05-26T07:13:07.028Z,74.80
2019-05-26T07:15:33.198Z,75.50
2019-05-26T07:17:59.477Z,74.10
2019-05-26T07:20:25.647Z,75.20
2019-05-26T07:22:51.870Z,75.00
2019-05-26T07:25:18.037Z,73.40
2019-05-26T07:27:44.229Z,72.60
2019-05-26T07:30:11.699Z,71.80
2019-05-26T07:32:37.872Z,72.10
2019-05-26T07:35:05.859Z,73.40
2019-05-26T07:37:32.039Z,72.90
2019-05-26T07:39:58.217Z,73.10
2019-05-26T07:42:24.407Z,71.10
2019-05-26T07:44:50.585Z,71.20
2019-05-26T07:47:16.755Z,69.10
2019-05-26T07:49:42.938Z,68.40
2019-05-26T07:52:09.088Z,64.90
2019-05-26T07:54:35.285Z,64.10
2019-05-26T07:57:01.448Z,61.40
2019-05-26T07:59:27.718Z,61.90
2019-05-26T08:01:53.993Z,61.40
2019-05-26T08:04:20.197Z,59.20
2019-05-26T08:06:46.377Z,57.60
2019-05-26T08:09:12.615Z,56.20
2019-05-26T08:11:38.822Z,57.10
2019-05-26T08:14:05.085Z,55.70
2019-05-26T08:16:31.654Z,57.70
2019-05-26T08:18:57.932Z,58.10
2019-05-26T08:21:24.106Z,59.30
2019-05-26T08:23:50.401Z,57.10
2019-05-26T08:26:16.556Z,57.10
2019-05-26T08:28:42.741Z,57.10
2019-05-26T08:31:08.932Z,56.00
2019-05-26T08:33:35.105Z,53.00
2019-05-26T08:36:01.348Z,52.60
2019-05-26T08:38:27.603Z,51.90
2019-05-26T08:40:53.818Z,50.20
2019-05-26T08:43:19.999Z,49.50
2019-05-26T08:45:46.614Z,50.20
2019-05-26T08:48:13.064Z,48.30
2019-05-26T08:50:39.233Z,48.30
2019-05-26T08:53:05.420Z,46.60
2019-05-26T08:55:31.576Z,44.60
2019-05-26T08:57:57.811Z,40.50
2019-05-26T09:00:24.102Z,41.60
2019-05-26T09:02:50.530Z,41.30
2019-05-26T09:05:17.385Z,38.50
2019-05-26T09:07:43.578Z,38.60
2019-05-26T09:10:12.557Z,38.40
2019-05-26T09:12:38.749Z,36.30
2019-05-26T09:15:06.941Z,35.60
2019-05-26T09:17:33.206Z,34.60
2019-05-26T09:19:59.389Z,34.20
2019-05-26T09:22:25.562Z,35.00
2019-05-26T09:24:51.766Z,34.00
2019-05-26T09:27:17.946Z,32.60
2019-05-26T09:29:44.211Z,31.90
2019-05-26T09:32:10.813Z,26.70
2019-05-26T09:34:36.989Z,27.80
2019-05-26T09:37:03.173Z,26.00
2019-05-26T09:39:29.365Z,26.50
2019-05-26T09:41:55.607Z,24.20
2019-05-26T09:44:21.794Z,24.10
2019-05-26T09:46:48.090Z,23.80
2019-05-26T09:49:14.557Z,23.80
2019-05-26T09:51:40.746Z,25.10
2019-05-26T09:54:06.900Z,26.10
2019-05-26T09:56:33.081Z,25.30
2019-05-26T09:58:59.256Z,23.60
2019-05-26T10:01:26.653Z,24.40
2019-05-26T10:03:52.836Z,23.00
2019-05-26T10:06:19.012Z,22.80
2019-05-26T10:08:45.221Z,23.00
2019-05-26T10:11:11.401Z,23.80
2019-05-26T10:13:37.568Z,25.10
2019-05-26T10:16:03.960Z,26.90
2019-05-26T10:18:30.148Z,27.50
2019-05-26T10:20:56.655Z,30.20
2019-05-26T10:23:22.965Z,31.50
2019-05-26T10:25:49.129Z,33.80
2019-05-26T10:28:15.312Z,34.60
2019-05-26T10:30:41.477Z,36.40
2019-05-26T10:33:07.668Z,38.40
2019-05-26T10:35:33.929Z,39.10
2019-05-26T10:38:00.128Z,38.60
2019-05-26T10:40:26.310Z,38.60
2019-05-26T10:42:52.500Z,39.50
2019-05-26T10:45:19.889Z,40.10
2019-05-26T10:47:46.338Z,40.10
2019-05-26T10:50:14.117Z,39.40
2019-05-26T10:52:40.290Z,42.20
2019-05-26T10:55:07.064Z,41.70
2019-05-26T10:57:33.280Z,40.90
2019-05-26T10:59:59.511Z,41.50
2019-05-26T11:02:25.685Z,43.30
2019-05-26T11:04:52.265Z,41.10
2019-05-26T11:07:18.458Z,42.60
2019-05-26T11:09:44.656Z,41.10
2019-05-26T11:12:10.817Z,37.40
2019-05-26T11:14:37.147Z,34.30
2019-05-26T11:17:03.571Z,32.00
2019-05-26T11:19:29.900Z,33.50
2019-05-26T11:21:56.154Z,30.80
2019-05-26T11:24:22.322Z,31.20
2019-05-26T11:26:48.666Z,28.50
2019-05-26T11:29:14.946Z,29.00
2019-05-26T11:31:41.124Z,28.10
2019-05-26T11:34:07.318Z,24.40
2019-05-26T11:36:33.555Z,24.00
2019-05-26T11:38:59.813Z,22.30
2019-05-26T11:41:26.010Z,23.20
2019-05-26T11:43:52.192Z,27.00
2019-05-26T11:46:18.458Z,30.10
2019-05-26T11:48:44.879Z,32.80
2019-05-26T11:51:11.040Z,33.50
2019-05-26T11:53:37.234Z,30.70
2019-05-26T11:56:03.431Z,31.70
2019-05-26T11:58:29.622Z,32.50
2019-05-26T12:00:55.780Z,34.30
2019-05-26T12:03:21.977Z,35.00
2019-05-26T12:05:48.138Z,36.00
2019-05-26T12:08:14.348Z,37.20
2019-05-26T12:10:40.517Z,36.90
2019-05-26T12:13:06.721Z,38.40
2019-05-26T12:15:32.953Z,37.90
2019-05-26T12:17:59.133Z,38.80
2019-05-26T12:20:25.305Z,38.50
2019-05-26T12:22:51.508Z,40.00
2019-05-26T12:25:17.952Z,41.30
2019-05-26T12:27:44.205Z,43.40
2019-05-26T12:30:32.239Z,43.00
2019-05-26T12:32:58.477Z,44.10
2019-05-26T12:35:26.576Z,40.70
2019-05-26T12:37:52.931Z,44.10
2019-05-26T12:40:19.317Z,42.10
2019-05-26T12:42:45.819Z,43.50
2019-05-26T12:45:14.509Z,43.40
2019-05-26T12:47:40.845Z,41.90
2019-05-26T12:50:08.611Z,40.20
2019-05-26T12:52:35.156Z,41.00
2019-05-26T12:55:01.322Z,40.20
2019-05-26T12:57:27.539Z,43.40
2019-05-26T12:59:53.746Z,42.10
2019-05-26T13:02:21.118Z,41.70
2019-05-26T13:04:47.300Z,41.60
2019-05-26T13:07:13.709Z,41.60
2019-05-26T13:09:39.898Z,41.80
2019-05-26T13:12:06.157Z,40.30
2019-05-26T13:14:32.349Z,39.00
2019-05-26T13:17:01.491Z,38.10
2019-05-26T13:19:26.604Z,37.80
2019-05-26T13:21:52.848Z,39.10
2019-05-26T13:24:19.031Z,40.30
2019-05-26T13:26:45.321Z,39.40
2019-05-26T13:29:11.575Z,40.60
2019-05-26T13:31:37.773Z,42.10
2019-05-26T13:34:04.166Z,46.00
2019-05-26T13:36:30.388Z,44.60
2019-05-26T13:39:16.488Z,43.00
2019-05-26T13:41:42.766Z,42.10
2019-05-26T13:44:09.058Z,42.10
2019-05-26T13:46:35.222Z,43.60
2019-05-26T13:49:01.419Z,43.60
2019-05-26T13:51:27.604Z,44.30
2019-05-26T13:53:53.796Z,45.10
2019-05-26T13:56:20.108Z,44.30
2019-05-26T13:58:46.304Z,45.40
2019-05-26T14:01:12.481Z,45.80
2019-05-26T14:03:38.676Z,45.30
2019-05-26T14:06:04.897Z,46.60
2019-05-26T14:08:31.188Z,45.60
2019-05-26T14:10:57.475Z,44.60
2019-05-26T14:13:23.645Z,46.30
2019-05-26T14:15:53.345Z,48.60
2019-05-26T14:18:22.357Z,49.00
2019-05-26T14:20:49.747Z,49.30
2019-05-26T14:23:15.929Z,50.00
2019-05-26T14:25:42.146Z,49.20
2019-05-26T14:28:08.513Z,48.60
2019-05-26T14:30:35.048Z,47.90
2019-05-26T14:33:01.451Z,47.40
2019-05-26T14:35:27.857Z,45.80
2019-05-26T14:37:54.023Z,45.20
2019-05-26T14:40:20.239Z,44.10
2019-05-26T14:42:46.421Z,44.20
2019-05-26T14:45:12.805Z,43.80
2019-05-26T14:47:39.070Z,42.70
2019-05-26T14:50:06.665Z,46.20
2019-05-26T14:52:32.828Z,44.90
2019-05-26T14:54:59.037Z,44.80
2019-05-26T14:57:25.204Z,45.70
2019-05-26T14:59:51.421Z,45.70
2019-05-26T15:02:17.636Z,46.50
2019-05-26T15:04:43.864Z,44.20
2019-05-26T15:07:10.106Z,46.10
2019-05-26T15:09:36.386Z,46.00
2019-05-26T15:12:03.051Z,47.00
2019-05-26T15:14:29.251Z,47.30
2019-05-26T15:16:55.515Z,46.40
2019-05-26T15:19:21.837Z,48.20
2019-05-26T15:21:48.096Z,47.80
2019-05-26T15:24:14.409Z,47.70
2019-05-26T15:26:40.670Z,48.50
2019-05-26T15:29:07.090Z,47.70
2019-05-26T15:31:33.268Z,48.00
2019-05-26T15:33:59.456Z,50.20
2019-05-26T15:36:25.628Z,49.60
2019-05-26T15:38:51.809Z,49.30
2019-05-26T15:41:18.181Z,50.10
2019-05-26T15:43:44.409Z,49.00
2019-05-26T15:46:24.145Z,49.40
2019-05-26T15:48:38.678Z,48.00
2019-05-26T15:51:04.840Z,48.80
2019-05-26T15:53:31.042Z,50.10
2019-05-26T15:55:57.206Z,49.30
2019-05-26T15:58:23.486Z,49.50
2019-05-26T16:00:49.655Z,50.80
2019-05-26T16:03:15.859Z,51.30
2019-05-26T16:05:42.043Z,50.90
2019-05-26T16:08:08.472Z,51.00
2019-05-26T16:10:34.679Z,50.40
2019-05-26T16:13:01.100Z,50.60
2019-05-26T16:15:27.291Z,52.90
2019-05-26T16:17:53.473Z,50.20
2019-05-26T16:20:19.778Z,50.00
2019-05-26T16:22:45.939Z,52.10
2019-05-26T16:25:12.967Z,51.60
2019-05-26T16:27:39.173Z,51.10
2019-05-26T16:30:07.048Z,50.40
2019-05-26T16:32:33.222Z,51.70
2019-05-26T16:34:59.405Z,51.50
2019-05-26T16:37:25.586Z,52.20
2019-05-26T16:39:51.794Z,50.80
2019-05-26T16:42:18.047Z,51.20
2019-05-26T16:44:44.317Z,52.90
2019-05-26T16:47:10.501Z,50.60
2019-05-26T16:49:36.665Z,51.40
2019-05-26T16:52:03.820Z,51.80
2019-05-26T16:54:30.081Z,51.20
2019-05-26T16:56:56.417Z,50.80
2019-05-26T16:59:22.612Z,50.70
2019-05-26T17:01:49.643Z,51.30
2019-05-26T17:04:15.928Z,51.80
2019-05-26T17:06:42.208Z,52.40
2019-05-26T17:09:08.501Z,51.30
2019-05-26T17:11:36.107Z,51.70
2019-05-26T17:14:02.622Z,50.80
2019-05-26T17:16:28.803Z,53.10
2019-05-26T17:18:55.430Z,52.90
2019-05-26T17:21:21.741Z,52.90
2019-05-26T17:23:48.452Z,52.90
2019-05-26T17:26:14.617Z,54.30
2019-05-26T17:28:40.928Z,53.70
2019-05-26T17:31:07.502Z,54.20
2019-05-26T17:33:33.819Z,54.10
2019-05-26T17:36:00.012Z,53.00
2019-05-26T17:38:27.972Z,53.80
2019-05-26T17:40:54.176Z,53.80
2019-05-26T17:43:20.345Z,54.70
2019-05-26T17:45:46.532Z,55.00
2019-05-26T17:48:12.697Z,55.00
2019-05-26T17:50:39.026Z,56.50
2019-05-26T17:53:05.207Z,55.80
2019-05-26T17:55:32.477Z,56.90
2019-05-26T17:57:58.952Z,55.20
2019-05-26T18:00:25.349Z,55.50
2019-05-26T18:02:51.531Z,56.40
2019-05-26T18:05:17.718Z,57.00
2019-05-26T18:07:44.041Z,57.50
2019-05-26T18:10:10.829Z,58.00
2019-05-26T18:12:36.994Z,58.00
2019-05-26T18:15:08.000Z,58.10
2019-05-26T18:17:46.471Z,58.20
2019-05-26T18:20:06.251Z,58.10
2019-05-26T18:22:32.880Z,59.30
2019-05-26T18:24:59.474Z,58.60
2019-05-26T18:27:25.947Z,59.20
2019-05-26T18:29:52.145Z,59.40
2019-05-26T18:32:18.468Z,59.70
2019-05-26T18:34:44.670Z,59.90
2019-05-26T18:37:11.929Z,61.20
2019-05-26T18:39:38.121Z,61.30
2019-05-26T18:42:04.417Z,62.00
2019-05-26T18:44:30.917Z,61.90
2019-05-26T18:46:57.083Z,62.80
2019-05-26T18:49:24.270Z,64.20
2019-05-26T18:51:51.408Z,65.00
2019-05-26T18:54:17.632Z,65.60
2019-05-26T18:56:43.812Z,64.50
2019-05-26T18:59:10.022Z,65.80
2019-05-26T19:01:36.233Z,67.60
2019-05-26T19:04:02.885Z,67.30
2019-05-26T19:06:29.269Z,66.70
2019-05-26T19:08:56.561Z,67.30
2019-05-26T19:11:22.777Z,68.80
2019-05-26T19:13:48.989Z,69.00
2019-05-26T19:16:15.188Z,69.70
2019-05-26T19:18:41.364Z,70.50
2019-05-26T19:21:07.532Z,70.70
2019-05-26T19:23:33.729Z,70.70
2019-05-26T19:25:59.928Z,71.00
2019-05-26T19:28:26.177Z,70.80
2019-05-26T19:30:52.409Z,70.90
2019-05-26T19:33:18.600Z,70.80
2019-05-26T19:35:46.053Z,71.30
2019-05-26T19:38:12.441Z,71.50
2019-05-26T19:40:38.617Z,71.60
2019-05-26T19:43:04.832Z,72.10
2019-05-26T19:45:31.027Z,72.80
2019-05-26T19:47:57.314Z,73.00
2019-05-26T19:50:23.485Z,74.00
2019-05-26T19:52:50.250Z,74.50
2019-05-26T19:55:16.660Z,74.90
2019-05-26T19:57:43.100Z,75.60
2019-05-26T20:00:11.214Z,77.30
2019-05-26T20:02:37.588Z,77.40
2019-05-26T20:05:06.039Z,78.00
2019-05-26T20:07:32.514Z,78.40
2019-05-26T20:09:58.789Z,78.60
2019-05-26T20:12:24.960Z,78.70
2019-05-26T20:14:51.200Z,79.10
2019-05-26T20:17:17.410Z,80.20
2019-05-26T20:19:43.580Z,81.40
2019-05-26T20:22:09.784Z,82.60
2019-05-26T20:24:35.964Z,83.00
2019-05-26T20:27:02.160Z,82.30
2019-05-26T20:29:28.384Z,83.10
2019-05-26T20:31:54.552Z,83.20
2019-05-26T20:34:21.809Z,84.10
2019-05-26T20:36:48.004Z,84.20
2019-05-26T20:39:14.497Z,84.50
2019-05-26T20:41:40.660Z,85.30
2019-05-26T20:44:06.825Z,85.40
2019-05-26T20:46:33.034Z,85.80
2019-05-26T20:48:59.233Z,86.10
2019-05-26T20:51:25.435Z,87.00
2019-05-26T20:53:52.590Z,87.40
2019-05-26T20:56:21.667Z,87.30
2019-05-26T20:58:47.829Z,86.90
2019-05-26T21:01:14.005Z,87.30
2019-05-26T21:03:40.170Z,87.10
2019-05-26T21:06:06.515Z,87.00
2019-05-26T21:08:32.701Z,87.60
2019-05-26T21:10:58.874Z,88.10
2019-05-26T21:13:25.070Z,88.90
2019-05-26T21:15:51.228Z,89.00
2019-05-26T21:18:17.434Z,88.80
2019-05-26T21:20:43.696Z,88.70
2019-05-26T21:23:09.881Z,88.40
2019-05-26T21:25:36.501Z,88.40
2019-05-26T21:28:02.676Z,87.90
2019-05-26T21:30:28.870Z,87.70
2019-05-26T21:32:55.048Z,87.80
2019-05-26T21:35:21.226Z,87.50
2019-05-26T21:37:47.404Z,87.20
2019-05-26T21:40:13.677Z,87.30
2019-05-26T21:42:39.840Z,88.20
2019-05-26T21:45:06.454Z,87.60
2019-05-26T21:47:32.633Z,87.50
2019-05-26T21:49:58.815Z,88.00
2019-05-26T21:52:24.999Z,87.80
2019-05-26T21:54:51.189Z,88.10
2019-05-26T21:57:17.365Z,88.70
2019-05-26T21:59:43.715Z,88.90
2019-05-26T22:02:10.134Z,89.00
2019-05-26T22:04:36.305Z,89.30
2019-05-26T22:07:03.174Z,89.40
2019-05-26T22:09:29.494Z,89.40
2019-05-26T22:11:55.705Z,89.60
2019-05-26T22:14:21.980Z,89.70
2019-05-26T22:16:48.222Z,89.90
2019-05-26T22:19:14.397Z,90.00
2019-05-26T22:21:40.577Z,90.00
2019-05-26T22:24:06.887Z,90.00
2019-05-26T22:26:33.130Z,90.00
2019-05-26T22:28:59.293Z,90.10
2019-05-26T22:31:25.496Z,90.20
2019-05-26T22:33:51.654Z,90.20
2019-05-26T22:36:17.841Z,90.30
2019-05-26T22:38:44.038Z,90.50
2019-05-26T22:41:10.308Z,90.50
2019-05-26T22:43:36.585Z,90.50
2019-05-26T22:46:02.862Z,90.50
2019-05-26T22:48:29.080Z,90.70
2019-05-26T22:50:55.293Z,90.70
2019-05-26T22:53:21.477Z,90.70
2019-05-26T22:55:47.632Z,90.70
2019-05-26T22:58:13.818Z,90.70
2019-05-26T23:00:39.973Z,90.60
2019-05-26T23:03:06.160Z,90.80
2019-05-26T23:05:32.319Z,90.90
2019-05-26T23:07:58.485Z,91.10
2019-05-26T23:10:25.942Z,91.30
2019-05-26T23:12:52.119Z,91.30
2019-05-26T23:15:18.351Z,91.80
2019-05-26T23:17:44.584Z,91.50
2019-05-26T23:20:11.362Z,91.50
2019-05-26T23:22:37.540Z,91.60
2019-05-26T23:25:04.612Z,91.60
2019-05-26T23:27:30.805Z,91.90
2019-05-26T23:29:56.973Z,91.70
2019-05-26T23:32:23.173Z,91.60
2019-05-26T23:34:49.395Z,91.60
2019-05-26T23:37:15.553Z,91.70
2019-05-26T23:39:41.737Z,91.90
2019-05-26T23:42:07.925Z,92.00
2019-05-26T23:44:34.105Z,92.20
2019-05-26T23:47:00.270Z,92.20
2019-05-26T23:49:26.515Z,92.10
2019-05-26T23:51:52.696Z,92.20
2019-05-26T23:54:18.884Z,92.10
2019-05-26T23:56:45.054Z,92.20
2019-05-26T23:59:11.255Z,92.20
